Time;durP1;ratioP1;P1;durP2;ratioP2;P2;SDS_P1;SDS_P2;PMS_P1;PMS_P2;Temp;Humidity;BMP_temperature;BMP_pressure;BME280_temperature;BME280_humidity;BME280_pressure;Samples;Min_cycle;Max_cycle;Signal;HPM_P1;HPM_P2
2022/10/14 00:00:50;;;;;;;0.20;0.20;;;23.30;99.90;;;;;;5086538;28;20221;-78
2022/10/14 00:03:21;;;;;;;0.50;0.30;;;23.50;99.90;;;;;;5089361;28;20223;-79
2022/10/14 00:05:52;;;;;;;1.63;0.20;;;23.70;99.90;;;;;;5089820;28;20195;-79
2022/10/14 00:08:25;;;;;;;0.73;0.25;;;23.90;99.90;;;;;;5071002;28;20204;-79
2022/10/14 00:10:56;;;;;;;0.30;0.30;;;24.00;99.90;;;;;;5074647;28;20215;-78
2022/10/14 00:13:26;;;;;;;0.55;0.22;;;24.20;99.90;;;;;;5091702;28;20667;-79
2022/10/14 00:15:57;;;;;;;0.52;0.20;;;24.30;99.90;;;;;;5079979;28;20234;-78
2022/10/14 00:18:30;;;;;;;0.30;0.30;;;24.50;99.90;;;;;;5088367;28;20199;-78
2022/10/14 00:21:02;;;;;;;0.45;0.28;;;24.60;99.90;;;;;;5091548;28;20191;-79
2022/10/14 00:23:35;;;;;;;2.08;0.30;;;24.60;99.90;;;;;;5090167;28;20233;-78
2022/10/14 00:26:06;;;;;;;0.15;0.15;;;24.60;99.90;;;;;;5091394;28;20199;-78
2022/10/14 00:28:37;;;;;;;1.85;0.20;;;24.50;99.90;;;;;;5082223;28;20236;-78
2022/10/14 00:31:07;;;;;;;0.40;0.17;;;24.60;99.90;;;;;;5096066;28;20204;-80
2022/10/14 00:33:38;;;;;;;1.00;0.30;;;24.50;99.90;;;;;;5084766;28;20187;-79
2022/10/14 00:36:10;;;;;;;0.10;0.10;;;24.50;99.90;;;;;;5090362;28;20206;-80
2022/10/14 00:38:44;;;;;;;0.57;0.20;;;24.50;99.90;;;;;;5084708;28;20203;-81
2022/10/14 00:41:17;;;;;;;0.55;0.05;;;24.50;99.90;;;;;;5071835;28;20191;-81
2022/10/14 00:44:01;;;;;;;2.65;0.20;;;24.60;99.90;;;;;;5080759;28;20215;-80
2022/10/14 00:46:33;;;;;;;1.45;0.10;;;24.70;99.90;;;;;;5072244;28;20620;-80
2022/10/14 00:49:09;;;;;;;0.80;0.10;;;24.60;99.90;;;;;;5077282;28;20475;-82
2022/10/14 00:51:44;;;;;;;0.10;0.10;;;24.70;99.90;;;;;;5083309;28;20244;-79
2022/10/14 00:54:19;;;;;;;0.47;0.20;;;24.80;99.90;;;;;;5090317;28;20194;-78
2022/10/14 00:56:51;;;;;;;0.10;0.10;;;25.00;97.90;;;;;;5083151;28;20267;-79
2022/10/14 00:59:22;;;;;;;0.20;0.20;;;25.10;96.20;;;;;;5086715;28;20236;-80
2022/10/14 01:01:53;;;;;;;0.95;0.17;;;25.10;92.40;;;;;;5089208;28;20721;-81
2022/10/14 01:04:24;;;;;;;0.25;0.20;;;25.20;91.00;;;;;;5087168;28;20219;-81
2022/10/14 01:07:03;;;;;;;2.00;0.30;;;25.20;85.50;;;;;;5092444;28;20195;-80
2022/10/14 01:09:42;;;;;;;0.60;0.25;;;25.20;82.40;;;;;;5079451;28;20203;-80
2022/10/14 01:12:23;;;;;;;2.08;0.25;;;25.20;80.20;;;;;;5096925;28;20262;-78
2022/10/14 01:15:03;;;;;;;0.20;0.10;;;25.20;81.70;;;;;;5101928;28;20261;-79
2022/10/14 01:17:47;;;;;;;0.47;0.20;;;25.20;81.50;;;;;;5100304;28;20191;-79
2022/10/14 01:20:48;;;;;;;0.17;0.17;;;25.30;86.40;;;;;;5094983;28;20187;-80
2022/10/14 01:24:00;;;;;;;1.00;0.20;;;25.40;84.60;;;;;;5067124;28;20229;-80
2022/10/14 01:26:57;;;;;;;1.05;0.20;;;25.60;82.40;;;;;;5098091;28;20208;-80
2022/10/14 01:29:50;;;;;;;0.35;0.30;;;25.70;81.70;;;;;;5099730;28;20195;-80
2022/10/14 01:32:28;;;;;;;0.25;0.20;;;25.80;84.00;;;;;;5094005;28;20194;-80
2022/10/14 01:35:07;;;;;;;1.25;0.30;;;25.60;82.80;;;;;;5098091;28;20226;-79
2022/10/14 01:37:43;;;;;;;1.30;0.50;;;25.50;81.10;;;;;;5092805;28;20195;-81
2022/10/14 01:40:22;;;;;;;0.70;0.20;;;25.60;76.50;;;;;;5100666;28;20226;-80
2022/10/14 01:42:55;;;;;;;0.50;0.30;;;25.50;78.40;;;;;;5093057;28;20191;-79
2022/10/14 01:45:33;;;;;;;1.33;0.20;;;25.50;77.00;;;;;;5098169;28;20237;-79
2022/10/14 01:48:06;;;;;;;0.73;0.40;;;25.30;77.00;;;;;;5083788;28;20282;-81
2022/10/14 01:50:39;;;;;;;0.82;0.10;;;25.40;70.10;;;;;;5091927;28;20202;-80
2022/10/14 01:53:15;;;;;;;1.40;0.20;;;25.30;64.50;;;;;;5088245;28;20207;-80
2022/10/14 01:55:48;;;;;;;0.15;0.15;;;25.40;65.60;;;;;;5090766;28;20282;-79
2022/10/14 01:58:20;;;;;;;0.52;0.30;;;25.50;61.70;;;;;;5083723;28;20206;-80
2022/10/14 02:00:53;;;;;;;4.40;0.30;;;25.60;61.30;;;;;;5093204;28;20715;-79
2022/10/14 02:03:24;;;;;;;1.48;0.22;;;25.50;59.90;;;;;;5086285;28;20640;-79
2022/10/14 02:05:59;;;;;;;0.43;0.20;;;25.20;61.40;;;;;;5089573;28;20250;-81
2022/10/14 02:08:38;;;;;;;1.13;0.40;;;25.30;64.70;;;;;;5098417;28;20194;-78
2022/10/14 02:11:13;;;;;;;0.40;0.40;;;25.60;61.30;;;;;;5078959;28;20206;-80
2022/10/14 02:14:00;;;;;;;0.60;0.40;;;25.60;61.10;;;;;;5094177;28;20657;-81
2022/10/14 02:16:39;;;;;;;2.22;0.68;;;25.50;61.20;;;;;;5093061;28;20199;-81
2022/10/14 02:19:23;;;;;;;2.28;0.40;;;25.50;61.10;;;;;;5089023;28;20592;-80
2022/10/14 02:22:00;;;;;;;1.33;0.30;;;25.60;60.50;;;;;;5092512;28;20206;-81
2022/10/14 02:24:34;;;;;;;0.98;0.52;;;25.50;59.10;;;;;;5092378;28;20270;-80
2022/10/14 02:27:07;;;;;;;0.35;0.30;;;25.30;58.70;;;;;;5092512;28;20215;-80
2022/10/14 02:29:40;;;;;;;0.10;0.10;;;25.50;57.70;;;;;;5092804;28;20195;-81
2022/10/14 02:32:18;;;;;;;0.47;0.35;;;25.40;55.10;;;;;;5089268;28;20285;-81
2022/10/14 02:34:51;;;;;;;0.25;0.20;;;25.20;52.90;;;;;;5082999;28;20278;-82
2022/10/14 02:37:23;;;;;;;0.30;0.20;;;25.40;54.30;;;;;;5076449;28;20593;-80
2022/10/14 02:39:59;;;;;;;0.10;0.10;;;25.50;54.10;;;;;;5088542;28;20203;-82
2022/10/14 02:42:31;;;;;;;0.20;0.20;;;25.60;53.90;;;;;;5092808;28;20242;-81
2022/10/14 02:45:02;;;;;;;0.70;0.30;;;25.60;52.80;;;;;;5095181;28;20223;-82
2022/10/14 02:47:35;;;;;;;0.88;0.32;;;25.60;53.50;;;;;;5102098;28;20259;-82
2022/10/14 02:50:06;;;;;;;0.47;0.20;;;25.80;54.30;;;;;;5087813;28;20199;-83
2022/10/14 02:52:38;;;;;;;0.20;0.20;;;25.80;51.50;;;;;;5092856;28;20571;-82
2022/10/14 02:55:12;;;;;;;0.55;0.20;;;25.80;51.90;;;;;;5092965;28;20203;-81
2022/10/14 02:57:43;;;;;;;1.77;0.30;;;26.20;53.40;;;;;;5094119;28;20297;-79
2022/10/14 03:00:15;;;;;;;0.25;0.10;;;26.30;51.30;;;;;;5092879;28;20222;-79
2022/10/14 03:02:47;;;;;;;0.47;0.20;;;26.30;48.50;;;;;;5090230;28;20200;-79
2022/10/14 03:05:18;;;;;;;0.50;0.50;;;26.40;48.80;;;;;;5091606;28;20312;-80
2022/10/14 03:07:49;;;;;;;1.00;0.17;;;26.50;46.00;;;;;;5094875;28;20223;-80
2022/10/14 03:10:20;;;;;;;1.45;0.30;;;26.70;45.60;;;;;;5092104;28;20191;-80
2022/10/14 03:12:51;;;;;;;0.22;0.13;;;26.10;44.10;;;;;;5090148;28;20666;-80
2022/10/14 03:15:22;;;;;;;0.05;0.05;;;26.40;45.60;;;;;;5092662;28;20322;-79
2022/10/14 03:17:55;;;;;;;0.13;0.10;;;26.60;44.20;;;;;;5089752;28;20207;-80
2022/10/14 03:20:26;;;;;;;0.52;0.10;;;26.60;43.40;;;;;;5089351;28;20227;-80
2022/10/14 03:22:56;;;;;;;0.43;0.25;;;26.80;45.00;;;;;;5091041;28;20233;-80
2022/10/14 03:25:27;;;;;;;1.55;0.52;;;27.00;39.70;;;;;;5090727;28;20701;-79
2022/10/14 03:27:58;;;;;;;0.43;0.32;;;27.00;39.30;;;;;;5075738;28;20605;-80
2022/10/14 03:30:29;;;;;;;0.30;0.30;;;26.90;36.10;;;;;;5074245;28;20722;-78
2022/10/14 03:33:02;;;;;;;0.20;0.20;;;26.60;36.90;;;;;;5090692;28;20282;-80
2022/10/14 03:35:32;;;;;;;3.90;0.68;;;26.60;38.10;;;;;;5089176;28;20205;-79
2022/10/14 03:38:05;;;;;;;0.30;0.20;;;26.70;38.90;;;;;;5090220;28;20278;-80
2022/10/14 03:40:36;;;;;;;1.52;0.40;;;26.70;38.30;;;;;;5089981;28;20203;-80
2022/10/14 03:43:06;;;;;;;3.60;0.40;;;27.00;38.70;;;;;;5087196;28;20198;-80
2022/10/14 03:45:37;;;;;;;0.20;0.20;;;27.10;37.40;;;;;;5091891;28;20254;-78
2022/10/14 03:48:10;;;;;;;0.68;0.40;;;27.20;38.10;;;;;;5087311;28;20188;-79
2022/10/14 03:50:41;;;;;;;0.73;0.40;;;27.40;36.80;;;;;;5087568;28;20211;-79
2022/10/14 03:53:12;;;;;;;1.85;0.30;;;27.40;37.20;;;;;;5091100;28;20251;-78
2022/10/14 03:55:43;;;;;;;0.77;0.10;;;27.00;36.70;;;;;;5096457;28;20207;-78
2022/10/14 03:58:14;;;;;;;3.50;0.30;;;27.30;37.00;;;;;;5092804;28;20201;-78
2022/10/14 04:00:45;;;;;;;0.28;0.22;;;27.10;35.20;;;;;;5084485;28;20206;-79
2022/10/14 04:03:18;;;;;;;0.75;0.20;;;27.00;37.70;;;;;;5091489;28;20195;-79
2022/10/14 04:05:49;;;;;;;2.05;0.30;;;26.60;36.00;;;;;;5086238;28;20229;-79
2022/10/14 04:08:19;;;;;;;0.40;0.30;;;26.30;37.00;;;;;;5072641;28;20923;-79
2022/10/14 04:10:55;;;;;;;0.68;0.30;;;26.00;37.30;;;;;;5080517;28;20194;-79
2022/10/14 04:13:26;;;;;;;0.52;0.30;;;25.80;38.30;;;;;;5086335;28;20229;-80
2022/10/14 04:15:57;;;;;;;0.95;0.30;;;25.40;38.60;;;;;;5088473;28;20229;-80
2022/10/14 04:18:29;;;;;;;0.40;0.30;;;25.10;38.80;;;;;;5096369;28;20622;-80
2022/10/14 04:21:03;;;;;;;0.50;0.30;;;24.80;39.00;;;;;;5088906;28;20624;-80
2022/10/14 04:23:34;;;;;;;0.65;0.22;;;25.10;40.00;;;;;;5092052;28;20195;-81
2022/10/14 04:26:08;;;;;;;0.38;0.10;;;25.00;39.90;;;;;;5091025;28;20632;-79
2022/10/14 04:28:41;;;;;;;1.55;0.40;;;25.40;41.10;;;;;;5087456;28;20195;-79
2022/10/14 04:31:12;;;;;;;1.52;0.40;;;25.70;40.30;;;;;;5091566;28;20677;-79
2022/10/14 04:33:45;;;;;;;0.52;0.28;;;25.40;40.50;;;;;;5093032;28;20199;-80
2022/10/14 04:36:16;;;;;;;1.77;0.45;;;25.50;40.20;;;;;;5091525;28;20225;-80
2022/10/14 04:38:51;;;;;;;0.20;0.20;;;25.90;41.00;;;;;;5092256;28;20202;-80
2022/10/14 04:41:22;;;;;;;0.90;0.30;;;26.10;39.40;;;;;;5090742;28;20202;-80
2022/10/14 04:43:53;;;;;;;1.40;0.40;;;26.30;40.20;;;;;;5080924;28;20196;-80
2022/10/14 04:46:24;;;;;;;0.45;0.30;;;26.20;40.60;;;;;;5090188;28;20279;-81
2022/10/14 04:48:56;;;;;;;0.50;0.20;;;25.60;39.90;;;;;;5088240;28;20205;-80
2022/10/14 04:51:27;;;;;;;1.08;0.30;;;25.40;41.10;;;;;;5086491;28;20298;-80
2022/10/14 04:53:58;;;;;;;1.35;0.30;;;25.70;43.30;;;;;;5084884;28;20278;-80
2022/10/14 04:56:29;;;;;;;0.20;0.20;;;26.40;42.70;;;;;;5090254;28;20205;-80
2022/10/14 04:59:01;;;;;;;3.13;0.60;;;26.80;40.80;;;;;;5081692;28;20714;-80
2022/10/14 05:01:32;;;;;;;1.58;0.40;;;26.20;40.70;;;;;;5089366;28;20700;-80
2022/10/14 05:04:05;;;;;;;0.95;0.30;;;25.80;41.90;;;;;;5096402;28;20203;-81
2022/10/14 05:06:37;;;;;;;2.05;0.50;;;26.10;41.10;;;;;;5087499;28;20277;-80
2022/10/14 05:09:08;;;;;;;0.75;0.20;;;26.20;41.30;;;;;;5095993;28;20536;-80
2022/10/14 05:11:39;;;;;;;1.08;0.40;;;26.00;41.80;;;;;;5086917;28;20617;-81
2022/10/14 05:14:09;;;;;;;0.40;0.38;;;26.50;41.80;;;;;;5094897;28;20212;-80
2022/10/14 05:16:40;;;;;;;1.48;0.40;;;26.70;41.30;;;;;;5090688;28;20223;-80
2022/10/14 05:19:13;;;;;;;1.08;0.30;;;26.80;40.90;;;;;;5089307;28;20274;-80
2022/10/14 05:21:46;;;;;;;3.50;0.70;;;26.50;41.40;;;;;;5093019;28;20657;-80
2022/10/14 05:24:18;;;;;;;0.90;0.50;;;26.30;42.10;;;;;;5095518;28;20207;-80
2022/10/14 05:26:49;;;;;;;0.95;0.30;;;26.10;42.90;;;;;;5086271;28;20245;-81
2022/10/14 05:29:19;;;;;;;1.70;0.38;;;25.90;41.10;;;;;;5084317;28;20576;-82
2022/10/14 05:31:50;;;;;;;0.52;0.20;;;25.80;43.20;;;;;;5093130;28;20275;-82
2022/10/14 05:34:23;;;;;;;1.13;0.30;;;26.30;42.60;;;;;;5086242;28;20198;-83
2022/10/14 05:36:54;;;;;;;1.15;0.68;;;26.90;42.80;;;;;;5088714;28;20286;-82
2022/10/14 05:39:25;;;;;;;1.00;0.30;;;27.40;41.30;;;;;;5092922;28;20794;-82
2022/10/14 05:41:55;;;;;;;1.63;0.30;;;27.00;39.00;;;;;;5094057;28;20191;-80
2022/10/14 05:44:26;;;;;;;1.27;0.30;;;26.80;39.70;;;;;;5094578;28;20195;-80
2022/10/14 05:46:57;;;;;;;1.30;0.45;;;27.50;38.80;;;;;;5093989;28;20192;-80
2022/10/14 05:49:30;;;;;;;2.50;0.45;;;27.50;38.50;;;;;;5088137;28;20200;-80
2022/10/14 05:52:00;;;;;;;1.00;0.45;;;27.40;38.50;;;;;;5096287;28;20191;-80
2022/10/14 05:54:31;;;;;;;1.38;0.50;;;27.50;38.30;;;;;;5094071;28;20199;-79
2022/10/14 05:57:02;;;;;;;1.00;0.45;;;27.30;38.20;;;;;;5093336;28;20201;-80
2022/10/14 05:59:33;;;;;;;0.77;0.35;;;26.90;38.80;;;;;;5093061;28;20207;-80
2022/10/14 06:02:04;;;;;;;0.40;0.30;;;27.10;39.00;;;;;;5094451;28;20214;-81
2022/10/14 06:04:41;;;;;;;0.38;0.38;;;27.10;38.90;;;;;;5082471;28;20201;-80
2022/10/14 06:07:12;;;;;;;4.35;0.40;;;26.90;38.70;;;;;;5090713;28;20195;-79
2022/10/14 06:09:43;;;;;;;0.30;0.28;;;26.10;40.50;;;;;;5088820;28;20192;-81
2022/10/14 06:12:14;;;;;;;0.30;0.30;;;25.80;42.30;;;;;;5091916;28;20203;-80
2022/10/14 06:14:44;;;;;;;1.42;0.40;;;25.60;43.00;;;;;;5094164;28;20769;-80
2022/10/14 06:17:15;;;;;;;0.75;0.43;;;25.40;43.00;;;;;;5092180;28;20199;-80
2022/10/14 06:19:48;;;;;;;0.40;0.30;;;25.20;43.00;;;;;;5086524;28;20202;-81
2022/10/14 06:22:19;;;;;;;2.75;0.55;;;25.40;42.20;;;;;;5091073;28;20283;-81
2022/10/14 06:24:49;;;;;;;1.48;0.50;;;25.20;42.70;;;;;;5091512;28;20230;-80
2022/10/14 06:27:20;;;;;;;1.73;0.47;;;25.10;43.90;;;;;;5085742;28;20677;-79
2022/10/14 06:29:51;;;;;;;1.10;0.50;;;24.90;44.10;;;;;;5085612;28;20187;-82
2022/10/14 06:32:22;;;;;;;1.42;0.50;;;24.80;44.90;;;;;;5095985;28;20206;-81
2022/10/14 06:34:55;;;;;;;1.73;0.73;;;24.70;44.60;;;;;;5082367;28;20281;-81
2022/10/14 06:37:25;;;;;;;2.53;0.50;;;24.50;44.40;;;;;;5092155;28;20283;-81
2022/10/14 06:39:56;;;;;;;1.75;0.57;;;24.30;45.80;;;;;;5084012;28;20531;-81
2022/10/14 06:42:27;;;;;;;2.53;0.90;;;24.20;45.80;;;;;;5084508;28;20722;-81
2022/10/14 06:44:58;;;;;;;2.03;0.73;;;24.20;46.10;;;;;;5081283;28;20215;-81
2022/10/14 06:47:29;;;;;;;0.60;0.40;;;24.10;46.40;;;;;;5082694;28;20213;-81
2022/10/14 06:50:04;;;;;;;0.85;0.57;;;24.00;46.70;;;;;;5085045;28;20290;-82
2022/10/14 06:52:35;;;;;;;1.08;0.40;;;24.20;46.70;;;;;;5090757;28;20283;-81
2022/10/14 06:55:06;;;;;;;1.30;0.50;;;24.90;45.90;;;;;;5092744;28;20278;-81
2022/10/14 06:57:37;;;;;;;0.60;0.50;;;25.50;44.60;;;;;;5090670;28;20302;-81
2022/10/14 07:00:09;;;;;;;1.08;0.43;;;25.90;44.70;;;;;;5085101;28;20287;-84
2022/10/14 07:02:40;;;;;;;0.55;0.43;;;26.10;44.40;;;;;;5086849;28;20600;-83
2022/10/14 07:05:15;;;;;;;1.10;0.43;;;25.30;45.30;;;;;;5087890;28;20212;-83
2022/10/14 07:07:47;;;;;;;2.33;0.47;;;24.60;47.20;;;;;;5097525;28;20212;-83
2022/10/14 07:10:20;;;;;;;1.02;0.40;;;24.20;48.70;;;;;;5089497;28;20245;-82
2022/10/14 07:12:54;;;;;;;5.82;2.15;;;24.00;49.70;;;;;;5090828;28;20195;-81
2022/10/14 07:15:25;;;;;;;7.57;3.92;;;24.10;49.50;;;;;;5085210;28;20237;-82
2022/10/14 07:17:56;;;;;;;1.02;0.60;;;24.40;48.60;;;;;;5096718;28;20236;-81
2022/10/14 07:20:30;;;;;;;6.97;2.75;;;24.40;48.70;;;;;;5087352;28;20192;-82
2022/10/14 07:23:01;;;;;;;1.17;0.52;;;24.30;48.10;;;;;;5089546;28;20202;-82
2022/10/14 07:25:32;;;;;;;1.73;0.50;;;23.90;48.60;;;;;;5072607;28;20628;-83
2022/10/14 07:28:03;;;;;;;1.40;0.50;;;23.80;49.30;;;;;;5085172;28;20206;-82
2022/10/14 07:30:34;;;;;;;0.63;0.38;;;23.70;50.30;;;;;;5088800;28;20653;-82
2022/10/14 07:33:05;;;;;;;1.73;0.82;;;23.70;49.10;;;;;;5085649;28;20224;-83
2022/10/14 07:35:40;;;;;;;1.38;0.63;;;23.60;50.60;;;;;;5088740;28;20635;-82
2022/10/14 07:38:11;;;;;;;2.40;1.30;;;23.40;50.60;;;;;;5089649;28;20590;-82
2022/10/14 07:40:42;;;;;;;1.77;0.98;;;23.30;51.40;;;;;;5080704;28;20227;-83
2022/10/14 07:43:15;;;;;;;1.90;0.75;;;23.10;52.20;;;;;;5075631;28;20227;-88
2022/10/14 07:45:46;;;;;;;3.78;1.20;;;22.90;53.00;;;;;;5091429;28;20215;-80
2022/10/14 07:48:17;;;;;;;1.23;0.63;;;22.50;52.10;;;;;;5088858;28;20644;-82
2022/10/14 07:50:54;;;;;;;1.63;0.90;;;22.40;52.70;;;;;;5089634;28;20764;-81
2022/10/14 07:53:26;;;;;;;4.53;2.00;;;22.30;52.50;;;;;;5086432;28;20236;-81
2022/10/14 07:55:59;;;;;;;1.85;0.85;;;22.30;52.80;;;;;;5092080;28;20206;-80
2022/10/14 07:58:32;;;;;;;2.05;0.60;;;22.10;54.00;;;;;;5077043;28;20279;-81
2022/10/14 08:01:03;;;;;;;2.13;0.93;;;22.20;55.10;;;;;;5091490;28;20666;-79
2022/10/14 08:03:34;;;;;;;1.52;0.70;;;22.10;55.20;;;;;;5091448;28;20387;-81
2022/10/14 08:06:08;;;;;;;2.22;0.80;;;22.00;55.70;;;;;;5088355;28;20230;-80
2022/10/14 08:08:38;;;;;;;1.48;0.73;;;21.90;55.80;;;;;;5082107;28;20215;-79
2022/10/14 08:11:12;;;;;;;1.60;0.60;;;21.80;57.00;;;;;;5091713;28;20209;-80
2022/10/14 08:13:45;;;;;;;2.50;1.00;;;21.70;57.70;;;;;;5088384;28;20274;-80
2022/10/14 08:16:20;;;;;;;0.73;0.70;;;21.70;58.10;;;;;;5083218;28;20227;-80
2022/10/14 08:18:52;;;;;;;0.85;0.60;;;21.70;58.80;;;;;;5077492;28;20195;-79
2022/10/14 08:21:26;;;;;;;2.47;1.42;;;21.50;60.10;;;;;;5086952;28;20282;-80
2022/10/14 08:23:57;;;;;;;1.35;0.90;;;21.60;61.10;;;;;;5082917;28;20206;-80
2022/10/14 08:26:31;;;;;;;1.50;0.68;;;21.60;61.60;;;;;;5101885;28;20219;-79
2022/10/14 08:29:03;;;;;;;1.88;0.98;;;21.40;62.10;;;;;;5090758;28;20547;-79
2022/10/14 08:31:34;;;;;;;1.90;1.10;;;21.50;65.00;;;;;;5089876;28;20715;-78
2022/10/14 08:34:06;;;;;;;2.15;0.95;;;21.50;65.10;;;;;;5088185;28;20188;-80
2022/10/14 08:36:39;;;;;;;4.55;1.58;;;21.50;65.20;;;;;;5087440;28;20586;-80
2022/10/14 08:39:10;;;;;;;1.63;0.90;;;21.40;66.20;;;;;;5087737;28;20552;-79
2022/10/14 08:42:03;;;;;;;1.30;0.75;;;21.30;66.20;;;;;;5080445;28;20286;-79
2022/10/14 08:44:42;;;;;;;6.70;2.00;;;21.40;66.50;;;;;;5070747;28;20223;-80
2022/10/14 08:47:16;;;;;;;0.93;0.70;;;21.30;65.80;;;;;;5080726;28;20222;-79
2022/10/14 08:49:55;;;;;;;3.70;1.30;;;21.20;65.40;;;;;;5088093;28;20191;-79
2022/10/14 08:52:32;;;;;;;1.38;0.43;;;21.20;65.10;;;;;;5073800;28;20195;-78
2022/10/14 08:55:06;;;;;;;1.55;1.00;;;21.00;64.90;;;;;;5090080;28;20691;-79
2022/10/14 08:57:44;;;;;;;5.63;2.08;;;21.00;65.90;;;;;;5087648;28;20978;-79
2022/10/14 09:00:16;;;;;;;2.33;1.20;;;21.00;66.40;;;;;;5071544;28;20277;-79
2022/10/14 09:02:49;;;;;;;3.35;1.63;;;21.00;65.70;;;;;;5087925;28;20241;-79
2022/10/14 09:05:22;;;;;;;6.95;3.10;;;21.00;66.40;;;;;;5078412;28;20191;-79
2022/10/14 09:07:58;;;;;;;1.73;0.80;;;21.00;65.70;;;;;;5086509;28;20302;-79
2022/10/14 09:10:34;;;;;;;2.88;1.90;;;21.00;66.30;;;;;;5088253;28;20209;-79
2022/10/14 09:13:13;;;;;;;2.67;1.10;;;20.90;66.30;;;;;;5089102;28;20199;-79
2022/10/14 09:15:46;;;;;;;4.85;2.45;;;20.90;66.90;;;;;;5072490;28;20223;-80
2022/10/14 09:18:25;;;;;;;1.67;0.90;;;20.90;67.20;;;;;;5073136;28;20195;-80
2022/10/14 09:20:56;;;;;;;2.88;1.00;;;20.80;67.30;;;;;;5080749;28;20206;-80
2022/10/14 09:23:30;;;;;;;2.72;1.60;;;20.90;68.40;;;;;;5074244;28;20650;-79
2022/10/14 09:26:06;;;;;;;3.00;1.13;;;20.90;69.10;;;;;;5086975;28;20237;-79
2022/10/14 09:28:40;;;;;;;2.80;1.40;;;20.80;68.50;;;;;;5074525;28;20196;-79
2022/10/14 09:31:14;;;;;;;2.58;1.33;;;20.70;68.10;;;;;;5086003;28;20206;-80
2022/10/14 09:33:46;;;;;;;2.25;1.27;;;20.70;69.00;;;;;;5099278;28;20250;-80
2022/10/14 09:36:19;;;;;;;0.95;0.88;;;20.70;69.40;;;;;;5099250;28;20258;-79
2022/10/14 09:38:55;;;;;;;2.38;0.95;;;20.60;70.20;;;;;;5084649;28;20237;-80
2022/10/14 09:41:32;;;;;;;1.17;0.70;;;20.60;71.50;;;;;;5091435;28;20199;-80
2022/10/14 09:44:24;;;;;;;1.55;0.60;;;20.70;71.60;;;;;;5091556;28;20192;-79
2022/10/14 09:46:58;;;;;;;1.30;0.60;;;20.60;72.70;;;;;;5086665;28;20266;-79
2022/10/14 09:49:39;;;;;;;1.98;0.80;;;20.60;73.50;;;;;;5082239;28;20210;-80
2022/10/14 09:52:21;;;;;;;4.75;2.20;;;20.60;73.80;;;;;;5083773;28;20706;-79
2022/10/14 09:54:58;;;;;;;2.00;1.30;;;20.50;73.80;;;;;;5074584;28;20192;-80
2022/10/14 09:57:30;;;;;;;2.00;0.80;;;20.40;75.90;;;;;;5079097;28;20199;-80
2022/10/14 10:00:03;;;;;;;4.03;1.70;;;20.40;76.90;;;;;;5085074;28;20270;-79
2022/10/14 10:02:41;;;;;;;3.58;1.85;;;20.40;78.30;;;;;;5093507;28;20658;-79
2022/10/14 10:05:26;;;;;;;2.67;1.35;;;20.30;81.10;;;;;;5091807;28;20240;-79
2022/10/14 10:08:04;;;;;;;3.55;0.82;;;20.20;82.10;;;;;;5086544;28;20226;-80
2022/10/14 10:10:37;;;;;;;3.17;1.00;;;20.30;83.60;;;;;;5085223;28;20236;-80
2022/10/14 10:13:23;;;;;;;2.58;1.02;;;20.20;84.90;;;;;;5080622;28;20242;-79
2022/10/14 10:16:02;;;;;;;2.10;1.02;;;20.20;86.40;;;;;;5093126;28;20310;-79
2022/10/14 10:18:32;;;;;;;2.35;1.20;;;20.10;87.90;;;;;;5091325;28;20195;-80
2022/10/14 10:21:08;;;;;;;1.52;0.70;;;20.10;88.90;;;;;;5087024;28;20195;-80
2022/10/14 10:23:39;;;;;;;1.20;0.75;;;20.10;90.20;;;;;;5092448;28;20199;-80
2022/10/14 10:26:24;;;;;;;2.03;0.93;;;20.00;91.00;;;;;;5090399;28;20211;-79
2022/10/14 10:28:57;;;;;;;3.20;0.95;;;20.10;91.80;;;;;;5093781;28;20207;-80
2022/10/14 10:31:53;;;;;;;3.30;1.88;;;20.10;93.80;;;;;;5086862;28;20211;-79
2022/10/14 10:34:47;;;;;;;4.32;2.50;;;20.10;92.80;;;;;;5091836;28;20195;-80
2022/10/14 10:37:27;;;;;;;2.15;1.60;;;20.10;93.00;;;;;;5077245;28;20195;-80
2022/10/14 10:40:23;;;;;;;1.77;1.02;;;20.00;93.60;;;;;;5088039;28;20579;-79
2022/10/14 10:43:12;;;;;;;2.03;1.00;;;20.10;95.20;;;;;;5106322;28;20227;-80
2022/10/14 10:45:56;;;;;;;0.98;0.73;;;20.00;95.70;;;;;;5078257;28;20273;-80
2022/10/14 10:48:35;;;;;;;0.90;0.60;;;20.00;96.30;;;;;;5086638;28;20203;-79
2022/10/14 10:51:11;;;;;;;1.92;0.80;;;20.00;96.50;;;;;;5086564;28;20210;-79
2022/10/14 10:54:00;;;;;;;2.47;0.80;;;19.90;98.10;;;;;;5087713;28;20198;-79
2022/10/14 10:56:38;;;;;;;1.33;0.80;;;19.90;98.00;;;;;;5085864;28;20203;-80
2022/10/14 10:59:30;;;;;;;1.10;0.68;;;19.90;98.90;;;;;;5084199;28;20197;-81
2022/10/14 11:02:18;;;;;;;3.25;0.98;;;19.90;98.70;;;;;;5084705;28;20286;-80
2022/10/14 11:04:52;;;;;;;1.23;0.80;;;19.80;99.60;;;;;;5089469;28;20277;-79
2022/10/14 11:13:22;;;;;;;1.77;0.80;;;19.80;99.90;;;;;;5092856;28;20210;-79
2022/10/14 11:16:01;;;;;;;1.23;0.95;;;19.70;99.90;;;;;;5081978;28;20243;-79
2022/10/14 11:18:46;;;;;;;1.38;0.70;;;19.70;99.90;;;;;;5084181;28;20205;-79
2022/10/14 11:21:29;;;;;;;1.63;0.98;;;19.60;99.90;;;;;;5083250;28;20726;-80
2022/10/14 11:24:10;;;;;;;1.13;0.70;;;19.50;99.90;;;;;;5081842;28;20187;-79
2022/10/14 11:26:59;;;;;;;1.48;0.75;;;19.40;99.90;;;;;;5090848;28;20214;-79
2022/10/14 11:30:02;;;;;;;1.40;0.60;;;19.40;99.90;;;;;;5085696;28;20294;-80
2022/10/14 11:32:43;;;;;;;1.85;1.00;;;19.40;99.90;;;;;;5084931;28;20197;-81
2022/10/14 11:35:25;;;;;;;1.60;0.85;;;19.40;99.90;;;;;;5091130;28;20665;-81
2022/10/14 11:38:17;;;;;;;1.00;0.82;;;19.30;99.90;;;;;;5085262;28;20697;-80
2022/10/14 11:40:51;;;;;;;2.55;0.80;;;19.30;99.90;;;;;;5083875;28;20722;-81
2022/10/14 11:43:28;;;;;;;0.80;0.63;;;19.20;99.90;;;;;;5071897;28;20283;-81
2022/10/14 11:46:06;;;;;;;1.52;0.82;;;19.20;99.90;;;;;;5083056;28;20665;-81
2022/10/14 11:48:46;;;;;;;1.08;0.65;;;19.10;99.90;;;;;;5091353;28;20209;-81
2022/10/14 11:51:24;;;;;;;1.77;0.77;;;19.10;99.90;;;;;;5102667;28;20286;-80
2022/10/14 11:54:07;;;;;;;0.82;0.55;;;19.10;99.90;;;;;;5083342;28;20201;-80
2022/10/14 11:56:48;;;;;;;1.30;0.75;;;19.10;99.90;;;;;;5080622;28;20218;-80
2022/10/14 11:59:40;;;;;;;1.08;0.70;;;19.20;99.90;;;;;;5085619;28;20198;-79
2022/10/14 12:02:43;;;;;;;1.17;0.70;;;19.20;99.90;;;;;;5028016;28;20195;-80
2022/10/14 12:05:23;;;;;;;1.45;0.70;;;19.20;99.90;;;;;;5087955;28;20695;-80
2022/10/14 12:08:06;;;;;;;1.10;0.73;;;19.10;99.90;;;;;;5085184;28;20242;-80
2022/10/14 12:10:40;;;;;;;1.13;0.55;;;19.10;99.90;;;;;;5091674;28;20716;-81
2022/10/14 12:13:17;;;;;;;1.48;0.60;;;19.10;99.90;;;;;;5090500;28;20219;-81
2022/10/14 12:15:53;;;;;;;2.25;0.60;;;19.10;99.90;;;;;;5088946;28;20645;-80
2022/10/14 12:18:24;;;;;;;1.05;0.70;;;19.10;99.90;;;;;;5083033;28;20195;-81
2022/10/14 12:21:05;;;;;;;1.17;0.63;;;19.10;99.90;;;;;;5088056;28;20194;-80
2022/10/14 12:23:40;;;;;;;1.00;0.60;;;19.00;99.90;;;;;;5090311;28;20206;-80
2022/10/14 12:26:18;;;;;;;1.35;0.60;;;19.00;99.90;;;;;;5090604;28;20201;-80
2022/10/14 12:28:51;;;;;;;2.70;1.15;;;19.00;99.90;;;;;;5089226;28;20559;-81
2022/10/14 12:31:35;;;;;;;0.88;0.60;;;18.90;99.90;;;;;;5088418;28;20195;-81
2022/10/14 12:34:42;;;;;;;4.15;0.93;;;18.80;99.90;;;;;;5079167;28;20290;-81
2022/10/14 12:37:50;;;;;;;1.35;0.80;;;18.80;99.90;;;;;;5071983;28;20199;-81
2022/10/14 12:40:41;;;;;;;1.20;0.80;;;18.80;99.90;;;;;;5074680;28;20196;-81
2022/10/14 12:43:22;;;;;;;1.23;0.90;;;18.80;99.90;;;;;;5068189;28;20192;-81
2022/10/14 12:46:04;;;;;;;1.98;0.68;;;18.70;99.90;;;;;;5094989;28;20548;-81
2022/10/14 12:48:37;;;;;;;1.38;0.70;;;18.70;99.90;;;;;;5087848;28;20298;-81
2022/10/14 12:51:15;;;;;;;3.78;1.10;;;18.60;99.90;;;;;;5092532;28;20298;-81
2022/10/14 12:53:59;;;;;;;1.83;0.70;;;18.60;99.90;;;;;;5090017;28;20203;-81
2022/10/14 12:56:39;;;;;;;2.25;0.70;;;18.60;99.90;;;;;;5092704;28;20564;-81
2022/10/14 12:59:11;;;;;;;2.88;0.68;;;18.50;99.90;;;;;;5099425;28;20219;-80
2022/10/14 13:01:45;;;;;;;2.10;0.73;;;18.50;99.90;;;;;;5075601;28;20200;-80
2022/10/14 13:04:20;;;;;;;3.00;0.60;;;18.60;99.90;;;;;;5088151;28;20195;-80
2022/10/14 13:07:22;;;;;;;1.23;0.55;;;18.50;99.90;;;;;;5082796;28;20199;-81
2022/10/14 13:10:29;;;;;;;1.20;0.60;;;18.60;99.90;;;;;;5090673;28;20649;-81
2022/10/14 13:12:59;;;;;;;1.95;0.70;;;18.50;99.90;;;;;;5086827;28;20199;-81
2022/10/14 13:16:00;;;;;;;1.08;0.63;;;18.50;99.90;;;;;;5072192;28;20234;-81
2022/10/14 13:18:55;;;;;;;1.15;0.43;;;18.50;99.90;;;;;;5075373;28;20606;-81
2022/10/14 13:21:47;;;;;;;2.97;0.68;;;18.60;99.90;;;;;;5061089;28;20191;-81
2022/10/14 13:24:22;;;;;;;1.20;0.57;;;18.50;99.90;;;;;;5071546;28;20195;-81
2022/10/14 13:27:14;;;;;;;1.60;0.50;;;18.50;99.90;;;;;;5091409;28;20205;-81
2022/10/14 13:30:02;;;;;;;2.58;0.50;;;18.50;99.90;;;;;;5083052;28;20196;-81
2022/10/14 13:32:42;;;;;;;1.13;0.65;;;18.40;99.90;;;;;;5078201;28;20187;-81
2022/10/14 13:35:21;;;;;;;1.70;0.50;;;18.50;99.90;;;;;;5094960;28;20634;-81
2022/10/14 13:38:01;;;;;;;0.77;0.50;;;18.50;99.90;;;;;;5093722;28;20195;-81